Time;durP1;ratioP1;P1;durP2;ratioP2;P2;SDS_P1;SDS_P2;PMS_P1;PMS_P2;Temp;Humidity;BMP_temperature;BMP_pressure;BME280_temperature;BME280_humidity;BME280_pressure;Samples;Min_cycle;Max_cycle;Signal;HPM_P1;HPM_P2
2023/04/08 00:01:13;;;;;;;6.07;5.47;;;4.30;84.30;;;;;;5085189;27;20104;-84
2023/04/08 00:03:39;;;;;;;6.35;5.30;;;4.30;84.40;;;;;;5085019;27;20086;-84
2023/04/08 00:06:05;;;;;;;7.43;5.50;;;4.20;84.50;;;;;;5068837;27;20032;-83
2023/04/08 00:08:31;;;;;;;6.55;5.07;;;4.10;84.50;;;;;;5084721;27;20451;-83
2023/04/08 00:10:56;;;;;;;7.82;6.00;;;4.10;84.70;;;;;;5101940;27;20046;-84
2023/04/08 00:13:22;;;;;;;7.50;5.38;;;4.10;84.80;;;;;;5084826;27;20031;-83
2023/04/08 00:15:48;;;;;;;8.00;6.00;;;4.10;84.80;;;;;;5118703;27;20043;-83
2023/04/08 00:18:15;;;;;;;7.88;5.53;;;4.00;84.80;;;;;;5118505;27;20126;-84
2023/04/08 00:20:42;;;;;;;7.60;6.03;;;4.00;84.80;;;;;;5118662;27;20043;-83
2023/04/08 00:23:08;;;;;;;7.85;6.43;;;4.00;84.90;;;;;;5118527;27;20035;-83
2023/04/08 00:25:33;;;;;;;9.07;6.07;;;4.00;84.90;;;;;;5068332;27;20050;-83
2023/04/08 00:27:59;;;;;;;6.80;5.85;;;3.90;85.10;;;;;;5084910;27;20479;-84
2023/04/08 00:30:26;;;;;;;7.80;5.63;;;3.90;85.10;;;;;;5118757;27;20380;-83
2023/04/08 00:32:53;;;;;;;8.65;6.03;;;3.90;85.40;;;;;;5084852;27;20152;-83
2023/04/08 00:35:19;;;;;;;6.80;5.65;;;4.00;85.80;;;;;;5118544;27;20043;-83
2023/04/08 00:37:44;;;;;;;8.93;6.10;;;4.00;85.60;;;;;;5118245;27;20036;-83
2023/04/08 00:40:11;;;;;;;7.93;6.65;;;4.00;85.50;;;;;;5067993;27;20043;-83
2023/04/08 00:42:37;;;;;;;9.38;6.47;;;3.80;85.50;;;;;;5101177;27;20551;-83
2023/04/08 00:45:04;;;;;;;8.25;5.82;;;3.80;85.70;;;;;;5118477;27;20039;-83
2023/04/08 00:47:30;;;;;;;8.82;6.38;;;3.80;85.70;;;;;;5084447;27;20039;-84
2023/04/08 00:49:56;;;;;;;10.82;6.57;;;3.70;85.60;;;;;;5084453;27;20035;-83
2023/04/08 00:52:22;;;;;;;8.52;6.05;;;3.70;85.60;;;;;;5101239;27;20457;-83
2023/04/08 00:54:47;;;;;;;7.85;6.53;;;3.60;85.50;;;;;;5067892;27;20491;-83
2023/04/08 00:57:13;;;;;;;8.45;5.80;;;3.60;85.90;;;;;;5100580;27;20046;-83
2023/04/08 00:59:40;;;;;;;8.18;6.28;;;3.50;86.00;;;;;;5101097;27;20422;-83
2023/04/08 01:02:11;;;;;;;10.35;7.22;;;3.50;86.00;;;;;;5100878;27;20039;-82
2023/04/08 01:04:39;;;;;;;8.23;6.38;;;3.50;86.30;;;;;;5100867;27;20507;-82
2023/04/08 01:07:08;;;;;;;10.32;6.88;;;3.50;86.60;;;;;;5100571;27;20478;-83
2023/04/08 01:09:38;;;;;;;10.32;7.50;;;3.40;86.60;;;;;;5101215;27;20047;-82
2023/04/08 01:12:07;;;;;;;9.13;7.18;;;3.40;86.50;;;;;;5100796;27;20050;-82
2023/04/08 01:14:38;;;;;;;10.40;8.10;;;3.40;86.70;;;;;;5117950;27;20038;-82
2023/04/08 01:17:05;;;;;;;8.63;6.65;;;3.40;86.80;;;;;;5100591;27;20487;-83
2023/04/08 01:19:34;;;;;;;10.25;7.85;;;3.30;87.00;;;;;;5083707;27;20179;-83
2023/04/08 01:22:41;;;;;;;11.45;8.55;;;3.30;87.10;;;;;;5118089;27;20038;-82
2023/04/08 01:25:15;;;;;;;10.73;8.07;;;3.30;87.20;;;;;;5117594;27;20079;-83
2023/04/08 01:27:42;;;;;;;10.65;7.82;;;3.30;87.30;;;;;;5100997;27;20047;-81
2023/04/08 01:30:09;;;;;;;13.30;8.20;;;3.40;87.40;;;;;;5117940;27;20062;-83
2023/04/08 01:32:36;;;;;;;11.13;8.55;;;3.40;87.20;;;;;;5084318;27;20047;-81
2023/04/08 01:35:02;;;;;;;15.25;8.85;;;3.40;87.40;;;;;;5100560;27;20049;-83
2023/04/08 01:37:30;;;;;;;11.25;8.32;;;3.40;87.80;;;;;;5083897;27;20039;-82
2023/04/08 01:39:56;;;;;;;11.95;9.05;;;3.40;87.70;;;;;;5100365;27;20045;-82
2023/04/08 01:42:24;;;;;;;14.18;9.23;;;3.40;87.60;;;;;;5083555;27;20039;-83
2023/04/08 01:44:54;;;;;;;12.95;9.13;;;3.40;87.50;;;;;;5100606;27;20391;-82
2023/04/08 01:47:20;;;;;;;12.93;9.57;;;3.30;87.70;;;;;;5117719;27;20163;-82
2023/04/08 01:49:46;;;;;;;16.15;10.43;;;3.30;87.80;;;;;;5100214;27;20047;-82
2023/04/08 01:52:13;;;;;;;15.23;9.73;;;3.30;87.90;;;;;;5083828;27;20386;-82
2023/04/08 01:54:39;;;;;;;13.50;9.57;;;3.30;88.00;;;;;;5100118;27;20130;-82
2023/04/08 01:57:07;;;;;;;13.60;10.25;;;3.30;88.00;;;;;;5116944;27;20130;-83
2023/04/08 01:59:36;;;;;;;13.10;9.48;;;3.20;88.20;;;;;;5117045;27;20526;-83
2023/04/08 02:02:04;;;;;;;13.88;9.73;;;3.30;88.20;;;;;;5099637;27;20643;-82
2023/04/08 02:04:30;;;;;;;13.35;10.63;;;3.30;88.30;;;;;;5099920;27;20074;-82
2023/04/08 02:06:57;;;;;;;15.00;10.93;;;3.20;88.20;;;;;;5099612;27;20454;-82
2023/04/08 02:09:24;;;;;;;13.75;11.65;;;3.20;88.50;;;;;;5082608;27;20540;-83
2023/04/08 02:11:49;;;;;;;15.02;11.85;;;3.30;88.40;;;;;;5099857;27;20455;-84
2023/04/08 02:14:15;;;;;;;13.18;10.88;;;3.20;88.70;;;;;;5099874;27;20082;-82
2023/04/08 02:16:52;;;;;;;13.27;10.73;;;3.20;88.70;;;;;;5116511;27;20541;-84
2023/04/08 02:19:23;;;;;;;17.60;11.73;;;3.20;88.40;;;;;;5099667;27;20376;-84
2023/04/08 02:21:54;;;;;;;16.85;12.38;;;3.10;88.60;;;;;;5099332;27;20070;-83
2023/04/08 02:24:21;;;;;;;15.70;12.73;;;3.10;88.60;;;;;;5099200;27;20574;-83
2023/04/08 02:26:50;;;;;;;15.75;12.10;;;3.10;88.70;;;;;;5099480;27;20045;-82
2023/04/08 02:29:17;;;;;;;15.23;11.15;;;3.10;88.60;;;;;;5099363;27;20050;-83
2023/04/08 02:31:43;;;;;;;17.10;12.85;;;3.10;88.80;;;;;;5099217;27;20043;-82
2023/04/08 02:34:10;;;;;;;15.82;11.98;;;3.10;88.80;;;;;;5116071;27;20499;-84
2023/04/08 02:36:37;;;;;;;14.82;11.70;;;3.10;88.90;;;;;;5099162;27;20440;-83
2023/04/08 02:39:04;;;;;;;16.80;12.30;;;3.10;88.90;;;;;;5099014;27;20038;-83
2023/04/08 02:41:30;;;;;;;16.23;12.98;;;3.10;89.00;;;;;;5116152;27;20171;-84
2023/04/08 02:43:56;;;;;;;16.98;12.43;;;3.10;89.10;;;;;;5098934;27;20067;-83
2023/04/08 02:46:22;;;;;;;18.23;12.18;;;3.10;89.00;;;;;;5099006;27;20115;-82
2023/04/08 02:48:48;;;;;;;14.95;11.63;;;3.10;88.90;;;;;;5099128;27;20069;-83
2023/04/08 02:51:14;;;;;;;16.58;12.57;;;3.10;89.00;;;;;;5115637;27;20475;-83
2023/04/08 02:53:40;;;;;;;15.43;12.13;;;3.10;89.10;;;;;;5065409;27;20035;-83
2023/04/08 02:56:06;;;;;;;16.50;12.40;;;3.00;89.00;;;;;;5098840;27;20399;-84
2023/04/08 02:58:32;;;;;;;18.65;12.98;;;3.00;89.40;;;;;;5098806;27;20035;-83
2023/04/08 03:00:58;;;;;;;16.38;12.65;;;3.00;89.20;;;;;;5099159;27;20049;-84
2023/04/08 03:03:28;;;;;;;16.42;13.00;;;2.90;89.00;;;;;;5065066;27;20138;-83
2023/04/08 03:05:57;;;;;;;18.38;13.85;;;2.90;89.10;;;;;;5115857;27;20391;-83
2023/04/08 03:08:23;;;;;;;17.65;13.68;;;2.90;89.10;;;;;;5099586;27;20046;-83
2023/04/08 03:10:49;;;;;;;19.15;14.02;;;2.80;89.20;;;;;;5098599;27;20394;-83
2023/04/08 03:13:15;;;;;;;18.85;14.48;;;2.80;89.40;;;;;;5098818;27;20507;-82
2023/04/08 03:15:41;;;;;;;18.70;14.23;;;2.80;89.50;;;;;;5115549;27;20047;-83
2023/04/08 03:18:07;;;;;;;18.63;13.90;;;2.80;89.50;;;;;;5098412;27;20031;-84
2023/04/08 03:20:33;;;;;;;19.88;15.07;;;2.80;89.70;;;;;;5115447;27;20064;-84
2023/04/08 03:22:59;;;;;;;18.95;13.80;;;2.80;90.00;;;;;;5115392;28;20047;-84
2023/04/08 03:25:25;;;;;;;21.30;15.07;;;2.70;89.90;;;;;;5115377;28;20118;-83
2023/04/08 03:27:51;;;;;;;20.83;15.35;;;2.70;90.10;;;;;;5098492;28;20081;-83
2023/04/08 03:30:16;;;;;;;20.05;14.40;;;2.70;90.20;;;;;;5115193;28;20047;-83
2023/04/08 03:32:42;;;;;;;19.52;14.90;;;2.70;90.30;;;;;;5098429;28;20125;-83
2023/04/08 03:35:08;;;;;;;22.85;15.25;;;2.70;90.40;;;;;;5115553;28;20111;-83
2023/04/08 03:37:34;;;;;;;20.60;15.00;;;2.70;90.40;;;;;;5115256;28;20483;-82
2023/04/08 03:40:00;;;;;;;19.42;14.30;;;2.70;90.30;;;;;;5115433;28;20096;-84
2023/04/08 03:42:26;;;;;;;20.65;15.35;;;2.70;90.20;;;;;;5098169;28;20391;-83
2023/04/08 03:44:51;;;;;;;21.52;14.63;;;2.60;90.20;;;;;;5098420;28;20390;-83
2023/04/08 03:47:17;;;;;;;22.70;16.42;;;2.70;90.50;;;;;;5081422;28;20042;-83
2023/04/08 03:49:43;;;;;;;28.27;18.30;;;2.70;90.50;;;;;;5081265;28;20039;-83
2023/04/08 03:52:09;;;;;;;24.67;16.23;;;2.60;90.50;;;;;;5098413;28;20039;-83
2023/04/08 03:54:34;;;;;;;21.27;16.15;;;2.70;90.60;;;;;;5098196;28;20509;-83
2023/04/08 03:57:00;;;;;;;20.42;15.52;;;2.70;90.80;;;;;;5115212;28;20043;-83
2023/04/08 03:59:26;;;;;;;23.98;17.15;;;2.70;90.90;;;;;;5081212;28;20532;-84
2023/04/08 04:01:52;;;;;;;25.38;17.45;;;2.70;90.70;;;;;;5082481;28;20126;-83
2023/04/08 04:04:18;;;;;;;26.75;18.02;;;2.70;90.60;;;;;;5118086;28;20042;-82
2023/04/08 04:06:44;;;;;;;25.88;18.83;;;2.70;90.70;;;;;;5100587;28;20050;-83
2023/04/08 04:09:10;;;;;;;21.73;16.17;;;2.60;90.70;;;;;;5098654;28;20036;-83
2023/04/08 04:11:36;;;;;;;28.25;19.27;;;2.70;90.80;;;;;;5098695;28;20042;-83
2023/04/08 04:14:02;;;;;;;26.75;18.63;;;2.70;90.90;;;;;;5115858;28;20051;-83
2023/04/08 04:16:28;;;;;;;28.92;19.65;;;2.70;91.10;;;;;;5098673;28;20552;-83
2023/04/08 04:18:54;;;;;;;22.63;17.55;;;2.70;91.10;;;;;;5115277;28;20118;-83
2023/04/08 04:21:19;;;;;;;28.20;19.75;;;2.70;91.10;;;;;;5098524;28;20037;-82
2023/04/08 04:23:45;;;;;;;24.15;18.00;;;2.70;91.10;;;;;;5115442;28;20046;-83
2023/04/08 04:26:11;;;;;;;30.02;20.33;;;2.70;91.10;;;;;;5082045;28;20039;-83
2023/04/08 04:28:37;;;;;;;28.35;20.25;;;2.70;90.90;;;;;;5098547;28;20059;-83
2023/04/08 04:31:03;;;;;;;28.55;19.58;;;2.70;90.80;;;;;;5116715;27;20035;-83
2023/04/08 04:33:30;;;;;;;28.05;18.63;;;2.70;90.90;;;;;;5085580;27;20493;-83
2023/04/08 04:35:56;;;;;;;28.27;20.45;;;2.70;90.80;;;;;;5101897;27;20039;-83
2023/04/08 04:38:22;;;;;;;30.85;20.70;;;2.70;90.80;;;;;;5119232;27;20491;-83
2023/04/08 04:40:48;;;;;;;28.27;20.60;;;2.70;90.70;;;;;;5102299;27;20045;-83
2023/04/08 04:43:13;;;;;;;30.05;20.60;;;2.80;90.80;;;;;;5101754;27;20494;-82
2023/04/08 04:45:39;;;;;;;28.73;20.13;;;2.70;90.80;;;;;;5118840;27;20027;-83
2023/04/08 04:48:05;;;;;;;27.23;18.73;;;2.70;90.80;;;;;;5101150;27;20043;-83
2023/04/08 04:50:30;;;;;;;30.90;20.27;;;2.70;90.70;;;;;;5101238;27;20051;-82
2023/04/08 04:52:56;;;;;;;29.38;19.73;;;2.60;90.90;;;;;;5101026;27;20035;-83
2023/04/08 04:55:22;;;;;;;27.33;20.05;;;2.60;90.90;;;;;;5067439;27;20043;-83
2023/04/08 04:57:48;;;;;;;29.00;20.45;;;2.60;90.90;;;;;;5067494;27;20088;-83
2023/04/08 05:00:15;;;;;;;34.55;22.10;;;2.60;90.90;;;;;;5101164;27;20035;-83
2023/04/08 05:02:40;;;;;;;31.65;21.58;;;2.60;90.90;;;;;;5117977;27;20134;-82
2023/04/08 05:05:08;;;;;;;28.88;21.27;;;2.60;91.00;;;;;;5118570;27;20047;-83
2023/04/08 05:07:37;;;;;;;27.13;20.50;;;2.60;90.90;;;;;;5101183;27;20039;-83
2023/04/08 05:10:04;;;;;;;29.17;20.90;;;2.60;91.00;;;;;;5101316;27;20047;-82
2023/04/08 05:12:30;;;;;;;32.72;21.63;;;2.60;91.10;;;;;;5118117;27;20104;-83
2023/04/08 05:14:58;;;;;;;28.08;19.92;;;2.60;91.00;;;;;;5117842;27;20432;-83
2023/04/08 05:17:24;;;;;;;31.80;22.67;;;2.60;91.10;;;;;;5100808;27;20039;-83
2023/04/08 05:19:52;;;;;;;31.67;20.98;;;2.60;91.00;;;;;;5101002;27;20058;-83
2023/04/08 05:22:17;;;;;;;29.45;20.52;;;2.60;91.10;;;;;;5117848;27;20064;-84
2023/04/08 05:24:43;;;;;;;29.33;20.30;;;2.60;91.20;;;;;;5100387;27;20043;-83
2023/04/08 05:27:09;;;;;;;30.08;22.25;;;2.60;91.20;;;;;;5100369;27;20041;-83
2023/04/08 05:29:34;;;;;;;28.40;21.00;;;2.60;91.20;;;;;;5117251;27;20043;-82
2023/04/08 05:32:00;;;;;;;31.35;22.02;;;2.60;91.10;;;;;;5083562;27;20046;-82
2023/04/08 05:34:26;;;;;;;28.67;20.98;;;2.60;91.20;;;;;;5100225;27;20402;-83
2023/04/08 05:36:51;;;;;;;30.10;21.83;;;2.60;91.30;;;;;;5066738;27;20047;-83
2023/04/08 05:39:18;;;;;;;30.10;20.95;;;2.70;91.40;;;;;;5117250;27;20087;-83
2023/04/08 05:41:44;;;;;;;33.72;23.50;;;2.70;91.30;;;;;;5099860;27;20035;-82
2023/04/08 05:44:11;;;;;;;34.33;23.25;;;2.70;91.40;;;;;;5099277;27;20075;-83
2023/04/08 05:46:37;;;;;;;32.72;22.83;;;2.70;91.40;;;;;;5100287;27;20039;-82
2023/04/08 05:49:03;;;;;;;38.83;24.98;;;2.80;91.50;;;;;;5117176;27;20034;-83
2023/04/08 05:51:28;;;;;;;34.83;24.13;;;2.80;91.60;;;;;;5099993;27;20039;-82
2023/04/08 05:53:54;;;;;;;34.72;24.42;;;2.80;91.70;;;;;;5099791;27;20039;-83
2023/04/08 05:56:20;;;;;;;36.42;24.00;;;2.90;91.80;;;;;;5066648;27;20031;-82
2023/04/08 05:58:46;;;;;;;39.50;26.45;;;3.00;91.90;;;;;;5099722;27;20079;-82
2023/04/08 06:01:12;;;;;;;35.95;23.25;;;3.00;91.90;;;;;;5083173;27;20081;-83
2023/04/08 06:03:37;;;;;;;36.20;25.52;;;3.10;91.90;;;;;;5082722;27;20099;-83
2023/04/08 06:06:08;;;;;;;38.80;26.90;;;3.10;91.70;;;;;;5099612;27;20035;-83
2023/04/08 06:08:33;;;;;;;37.25;24.25;;;3.10;91.60;;;;;;5116572;27;20038;-82
2023/04/08 06:10:59;;;;;;;32.88;23.15;;;3.20;91.90;;;;;;5099922;27;20112;-82
2023/04/08 06:13:25;;;;;;;37.28;23.65;;;3.30;91.90;;;;;;5099733;27;20064;-82
2023/04/08 06:15:51;;;;;;;35.00;24.27;;;3.30;91.80;;;;;;5099498;27;20062;-83
2023/04/08 06:18:16;;;;;;;32.30;23.67;;;3.40;91.80;;;;;;5082632;27;20035;-82
2023/04/08 06:20:42;;;;;;;33.78;22.95;;;3.40;92.00;;;;;;5116664;27;20078;-82
2023/04/08 06:23:08;;;;;;;35.80;23.95;;;3.50;91.90;;;;;;5116266;27;20031;-82
2023/04/08 06:25:34;;;;;;;37.83;25.52;;;3.60;91.90;;;;;;5099789;27;20046;-82
2023/04/08 06:27:59;;;;;;;41.13;26.38;;;3.60;91.60;;;;;;5100020;27;20039;-82
2023/04/08 06:30:25;;;;;;;28.60;20.08;;;3.70;91.90;;;;;;5099654;27;20054;-82
2023/04/08 06:32:51;;;;;;;29.23;20.15;;;3.70;91.70;;;;;;5082513;27;20184;-82
2023/04/08 06:35:16;;;;;;;35.00;23.92;;;3.90;91.90;;;;;;5100056;27;20383;-82
2023/04/08 06:37:42;;;;;;;34.33;25.00;;;4.00;92.10;;;;;;5099904;27;20133;-83
2023/04/08 06:40:09;;;;;;;24.48;18.33;;;4.00;91.90;;;;;;5116524;27;20046;-81
2023/04/08 06:42:37;;;;;;;30.23;21.92;;;4.10;91.80;;;;;;5082277;27;20039;-82
2023/04/08 06:45:03;;;;;;;27.15;19.60;;;4.10;91.80;;;;;;5100356;27;20130;-82
2023/04/08 06:47:29;;;;;;;34.33;24.23;;;4.10;91.70;;;;;;5116587;27;20039;-82
2023/04/08 06:49:55;;;;;;;30.52;21.52;;;4.10;92.10;;;;;;5116019;27;20403;-82
2023/04/08 06:52:20;;;;;;;32.60;22.75;;;4.10;92.00;;;;;;5099212;27;20043;-82
2023/04/08 06:54:46;;;;;;;30.27;21.52;;;4.20;92.10;;;;;;5099126;27;20107;-82
2023/04/08 06:57:12;;;;;;;39.15;26.55;;;4.30;92.10;;;;;;5099457;28;20071;-82
2023/04/08 06:59:37;;;;;;;30.45;22.73;;;4.40;92.10;;;;;;5065938;27;20035;-82
2023/04/08 07:02:03;;;;;;;36.28;24.33;;;4.40;92.20;;;;;;5065792;27;20035;-82
2023/04/08 07:04:29;;;;;;;35.30;26.58;;;4.50;92.40;;;;;;5066005;27;20100;-83
2023/04/08 07:06:55;;;;;;;36.75;24.77;;;4.60;92.30;;;;;;5082408;27;20042;-82
2023/04/08 07:09:21;;;;;;;29.08;21.42;;;4.80;91.70;;;;;;5099497;27;20043;-82
2023/04/08 07:11:47;;;;;;;32.70;24.05;;;4.90;91.90;;;;;;5116438;27;20043;-82
2023/04/08 07:14:12;;;;;;;33.80;22.70;;;5.10;92.10;;;;;;5116199;27;20078;-82
2023/04/08 07:16:38;;;;;;;33.65;24.05;;;5.20;92.50;;;;;;5082455;27;20591;-82
2023/04/08 07:19:04;;;;;;;31.23;24.10;;;5.30;92.40;;;;;;5082108;28;20452;-81
2023/04/08 07:21:30;;;;;;;30.27;21.08;;;5.40;92.40;;;;;;5098978;27;20039;-82
2023/04/08 07:23:56;;;;;;;32.25;23.27;;;5.40;91.90;;;;;;5098646;27;20557;-83
2023/04/08 07:26:22;;;;;;;30.92;22.55;;;5.60;91.90;;;;;;5115960;28;20027;-82
2023/04/08 07:28:48;;;;;;;31.75;21.77;;;5.60;91.60;;;;;;5098399;27;20036;-81
2023/04/08 07:31:17;;;;;;;29.30;22.00;;;5.70;91.70;;;;;;5098893;28;20031;-82
2023/04/08 07:33:44;;;;;;;29.55;22.13;;;5.80;91.60;;;;;;5115685;28;20031;-81
2023/04/08 07:36:11;;;;;;;27.40;19.45;;;5.90;91.60;;;;;;5098591;28;20054;-82
2023/04/08 07:38:38;;;;;;;31.50;22.55;;;6.00;91.60;;;;;;5081654;28;20043;-81
2023/04/08 07:41:04;;;;;;;29.33;21.05;;;6.00;91.60;;;;;;5115663;28;20045;-82
2023/04/08 07:43:33;;;;;;;25.20;18.60;;;6.10;91.60;;;;;;5098698;28;20027;-82
2023/04/08 07:46:05;;;;;;;26.48;20.77;;;6.10;91.50;;;;;;5098783;28;20118;-83
2023/04/08 07:48:32;;;;;;;29.50;21.80;;;6.20;91.60;;;;;;5098069;28;20046;-82
2023/04/08 07:51:05;;;;;;;26.60;19.60;;;6.40;91.60;;;;;;5115444;28;20441;-82
2023/04/08 07:53:32;;;;;;;27.73;19.48;;;6.60;91.20;;;;;;5098520;28;20578;-81
2023/04/08 07:55:58;;;;;;;26.73;18.90;;;6.70;91.30;;;;;;5115268;28;20043;-81
2023/04/08 07:58:24;;;;;;;23.42;18.10;;;6.80;91.10;;;;;;5115058;27;20495;-82
2023/04/08 08:00:50;;;;;;;25.48;18.15;;;6.90;90.80;;;;;;5081661;28;20097;-82
2023/04/08 08:03:16;;;;;;;24.13;15.65;;;7.00;90.60;;;;;;5111572;28;20441;-82
2023/04/08 08:05:42;;;;;;;20.00;15.57;;;7.10;90.40;;;;;;5095926;28;20361;-81
2023/04/08 08:08:10;;;;;;;21.45;15.68;;;7.10;90.20;;;;;;5098795;28;20046;-82
2023/04/08 08:10:37;;;;;;;20.33;14.98;;;7.10;90.10;;;;;;5116121;28;20126;-82
2023/04/08 08:13:04;;;;;;;23.55;16.38;;;7.10;90.00;;;;;;5099162;28;20049;-83
2023/04/08 08:15:30;;;;;;;20.98;14.90;;;7.00;89.90;;;;;;5098648;28;20040;-81
2023/04/08 08:17:56;;;;;;;19.58;15.23;;;7.00;89.90;;;;;;5115482;28;20043;-82
2023/04/08 08:20:21;;;;;;;20.33;15.88;;;7.10;89.90;;;;;;5067354;28;20368;-81
2023/04/08 08:22:47;;;;;;;20.75;15.73;;;7.20;90.00;;;;;;5068944;28;20119;-82
2023/04/08 08:25:13;;;;;;;20.92;16.27;;;7.30;89.90;;;;;;5068656;28;20112;-81
2023/04/08 08:27:40;;;;;;;20.70;16.13;;;7.30;89.90;;;;;;5101272;28;20043;-81
2023/04/08 08:30:08;;;;;;;19.65;15.30;;;7.40;89.80;;;;;;5118118;28;20066;-81
2023/04/08 08:32:34;;;;;;;22.15;14.85;;;7.50;89.60;;;;;;5103521;28;20426;-81
2023/04/08 08:35:00;;;;;;;18.25;13.75;;;7.60;89.60;;;;;;5102438;28;20040;-82
2023/04/08 08:37:26;;;;;;;18.88;14.73;;;7.60;89.40;;;;;;5101960;28;20065;-81
2023/04/08 08:39:52;;;;;;;19.20;14.52;;;7.70;89.30;;;;;;5102327;28;20425;-82
2023/04/08 08:42:24;;;;;;;18.50;14.90;;;7.80;89.10;;;;;;5119142;28;20043;-82
2023/04/08 08:44:50;;;;;;;18.38;14.68;;;7.80;89.10;;;;;;5118889;28;20107;-81
2023/04/08 08:47:16;;;;;;;22.92;14.75;;;7.80;89.00;;;;;;5102695;28;20133;-82
2023/04/08 08:49:43;;;;;;;16.25;11.90;;;7.90;89.00;;;;;;5102291;28;20054;-81
2023/04/08 08:52:08;;;;;;;13.93;11.68;;;7.90;88.90;;;;;;5102558;28;20036;-81
2023/04/08 08:54:34;;;;;;;16.30;13.10;;;8.00;88.80;;;;;;5101977;28;20130;-81
2023/04/08 08:57:00;;;;;;;16.02;12.60;;;8.00;88.60;;;;;;5102204;28;20145;-81
2023/04/08 08:59:26;;;;;;;15.35;10.55;;;8.10;88.40;;;;;;5101521;28;20036;-82
2023/04/08 09:01:52;;;;;;;15.80;12.82;;;8.10;88.20;;;;;;5102316;28;20044;-81
2023/04/08 09:04:21;;;;;;;17.50;13.40;;;8.30;87.90;;;;;;5102128;28;20083;-82
2023/04/08 09:07:09;;;;;;;13.02;11.10;;;8.40;87.80;;;;;;5102568;28;20075;-82
2023/04/08 09:09:49;;;;;;;12.63;10.02;;;8.40;87.70;;;;;;5102539;28;20086;-82
2023/04/08 09:12:15;;;;;;;13.77;11.23;;;8.50;87.60;;;;;;5119996;28;20056;-82
2023/04/08 09:14:40;;;;;;;11.70;8.80;;;8.50;87.20;;;;;;5117652;28;20046;-85
2023/04/08 09:17:06;;;;;;;11.60;8.80;;;8.60;87.00;;;;;;5083836;28;20036;-82
2023/04/08 09:19:32;;;;;;;14.15;10.68;;;8.60;86.70;;;;;;5101581;28;20500;-82
2023/04/08 09:22:08;;;;;;;14.25;9.77;;;8.70;86.20;;;;;;5100294;28;20391;-82
2023/04/08 09:24:35;;;;;;;11.25;9.55;;;8.70;86.20;;;;;;5100584;28;20065;-82
2023/04/08 09:27:04;;;;;;;13.27;10.70;;;8.70;86.20;;;;;;5083823;28;20047;-83
2023/04/08 09:29:31;;;;;;;15.40;11.02;;;8.80;86.10;;;;;;5083838;28;20046;-81
2023/04/08 09:31:58;;;;;;;12.48;10.18;;;8.80;86.00;;;;;;5117321;28;20055;-83
2023/04/08 09:34:26;;;;;;;12.02;9.48;;;9.00;86.00;;;;;;5100297;28;20100;-82
2023/04/08 09:36:52;;;;;;;13.13;9.48;;;9.30;86.00;;;;;;5100379;28;20050;-82
2023/04/08 09:39:18;;;;;;;12.55;10.10;;;9.60;85.50;;;;;;5082585;28;20082;-83
2023/04/08 09:41:47;;;;;;;15.20;9.57;;;9.70;85.00;;;;;;5099770;28;20395;-82
2023/04/08 09:44:15;;;;;;;11.35;8.45;;;9.80;84.60;;;;;;5115832;28;20038;-82
2023/04/08 09:46:51;;;;;;;10.98;9.23;;;9.70;83.80;;;;;;5116091;28;20039;-82
2023/04/08 09:49:32;;;;;;;15.30;9.52;;;9.60;83.10;;;;;;5116595;28;20039;-81
2023/04/08 09:52:10;;;;;;;12.50;9.13;;;9.60;83.10;;;;;;5100323;28;20101;-82
2023/04/08 09:55:16;;;;;;;12.50;9.35;;;9.50;83.10;;;;;;5116429;28;20074;-82
2023/04/08 09:58:07;;;;;;;13.93;9.55;;;9.40;83.20;;;;;;5039952;28;20099;-82
2023/04/08 10:00:42;;;;;;;14.93;9.15;;;9.30;83.40;;;;;;5039797;28;20072;-82
2023/04/08 10:03:33;;;;;;;12.60;8.40;;;9.30;83.50;;;;;;5096327;28;20508;-82
2023/04/08 10:06:01;;;;;;;11.05;9.38;;;9.20;83.50;;;;;;5097724;28;20046;-83
2023/04/08 10:08:27;;;;;;;11.02;8.63;;;9.10;83.50;;;;;;5097810;28;20040;-82
2023/04/08 10:10:54;;;;;;;12.88;10.90;;;9.00;83.80;;;;;;5064300;28;20046;-84
2023/04/08 10:13:20;;;;;;;13.40;11.00;;;9.00;84.00;;;;;;5098056;28;20089;-84
2023/04/08 10:15:47;;;;;;;13.13;10.65;;;9.00;84.50;;;;;;5098225;28;20126;-83
2023/04/08 10:18:13;;;;;;;16.45;11.35;;;9.00;84.60;;;;;;5097667;28;20043;-84
2023/04/08 10:20:39;;;;;;;15.00;11.55;;;9.00;84.80;;;;;;5097751;28;20035;-84
2023/04/08 10:23:13;;;;;;;15.48;11.15;;;9.00;84.90;;;;;;5098871;28;20081;-82
2023/04/08 10:25:46;;;;;;;13.55;11.23;;;9.00;85.10;;;;;;5115042;28;20488;-82
2023/04/08 10:28:12;;;;;;;15.20;10.98;;;9.10;85.10;;;;;;5097049;28;20510;-83
2023/04/08 10:30:51;;;;;;;14.20;10.40;;;9.10;85.40;;;;;;5096795;28;20051;-83
2023/04/08 10:33:20;;;;;;;13.63;10.90;;;9.20;85.40;;;;;;5096929;28;20050;-83
2023/04/08 10:35:48;;;;;;;13.98;10.38;;;9.20;85.40;;;;;;5097194;28;20480;-85
2023/04/08 10:38:16;;;;;;;12.07;10.38;;;9.30;85.40;;;;;;5095835;28;20437;-84
2023/04/08 10:40:43;;;;;;;15.02;11.63;;;9.30;85.50;;;;;;5097669;28;20047;-84
2023/04/08 10:43:13;;;;;;;17.48;12.77;;;9.30;85.60;;;;;;5081189;28;20044;-84
2023/04/08 10:45:39;;;;;;;14.77;10.38;;;9.30;85.50;;;;;;5114844;28;20047;-84
2023/04/08 10:48:23;;;;;;;14.10;11.80;;;9.30;85.60;;;;;;5081330;28;20127;-83
2023/04/08 10:51:00;;;;;;;14.07;11.35;;;9.30;85.80;;;;;;5099051;28;20096;-84
2023/04/08 10:53:38;;;;;;;13.05;10.90;;;9.30;85.80;;;;;;5114944;28;20120;-83
2023/04/08 10:56:14;;;;;;;14.60;10.63;;;9.30;85.60;;;;;;5113259;28;20105;-83
2023/04/08 10:58:58;;;;;;;14.32;10.50;;;9.20;85.90;;;;;;5096939;28;20039;-83
2023/04/08 11:01:24;;;;;;;14.63;10.82;;;9.20;85.90;;;;;;5113542;28;20043;-83
2023/04/08 11:03:50;;;;;;;15.93;12.07;;;9.20;86.00;;;;;;5079301;28;20066;-83
2023/04/08 11:06:16;;;;;;;15.95;11.32;;;9.30;85.90;;;;;;5096712;28;20091;-83
2023/04/08 11:08:43;;;;;;;15.32;11.80;;;9.30;85.90;;;;;;5096594;28;20039;-82
2023/04/08 11:11:10;;;;;;;15.88;12.32;;;9.20;86.10;;;;;;5080618;28;20046;-82
2023/04/08 11:13:45;;;;;;;16.05;11.88;;;9.20;86.10;;;;;;5097599;28;20043;-84
2023/04/08 11:16:11;;;;;;;15.73;11.85;;;9.30;86.10;;;;;;5098081;28;20131;-83
2023/04/08 11:18:40;;;;;;;15.15;11.23;;;9.30;86.00;;;;;;5097741;28;20039;-83
2023/04/08 11:21:12;;;;;;;14.35;11.35;;;9.30;86.30;;;;;;5097720;28;20040;-83
2023/04/08 11:23:38;;;;;;;14.25;11.70;;;9.30;86.40;;;;;;5098960;28;20467;-84
2023/04/08 11:26:03;;;;;;;15.40;11.52;;;9.30;86.30;;;;;;5081045;28;20036;-83
2023/04/08 11:28:30;;;;;;;12.70;9.88;;;9.30;86.40;;;;;;5080949;28;20135;-83
2023/04/08 11:30:56;;;;;;;13.63;10.98;;;9.40;86.40;;;;;;5115688;28;20050;-82
2023/04/08 11:33:26;;;;;;;13.70;11.32;;;9.50;86.40;;;;;;5098125;28;20111;-83
2023/04/08 11:35:51;;;;;;;14.75;12.07;;;9.50;86.50;;;;;;5097623;28;20035;-83
2023/04/08 11:38:22;;;;;;;16.45;10.48;;;9.40;86.30;;;;;;5114166;28;20380;-85
2023/04/08 11:40:55;;;;;;;13.20;10.23;;;9.50;86.30;;;;;;5115066;28;20333;-83
2023/04/08 11:43:22;;;;;;;13.27;11.02;;;9.50;86.30;;;;;;5100941;28;20055;-84
2023/04/08 11:45:48;;;;;;;16.30;11.75;;;9.50;86.30;;;;;;5100189;28;20379;-83
2023/04/08 11:48:15;;;;;;;19.55;14.48;;;9.50;86.20;;;;;;5099573;28;20039;-85
2023/04/08 11:50:41;;;;;;;14.63;11.60;;;9.60;86.30;;;;;;5100987;28;20173;-82
2023/04/08 11:53:20;;;;;;;16.52;11.93;;;9.60;86.40;;;;;;5101153;28;20132;-83
2023/04/08 11:55:47;;;;;;;16.27;12.20;;;9.60;86.20;;;;;;5101573;28;20043;-83
2023/04/08 11:58:14;;;;;;;16.33;11.27;;;9.70;86.20;;;;;;5067447;28;20039;-83
2023/04/08 12:00:41;;;;;;;16.42;11.88;;;9.70;86.00;;;;;;5100984;28;20046;-84
2023/04/08 12:03:07;;;;;;;16.23;11.43;;;9.70;86.00;;;;;;5117674;28;20201;-83
2023/04/08 12:05:33;;;;;;;15.00;11.77;;;9.70;86.10;;;;;;5118391;28;20050;-84
2023/04/08 12:07:59;;;;;;;16.50;11.93;;;9.80;86.20;;;;;;5100820;28;20046;-84
2023/04/08 12:10:25;;;;;;;15.75;12.07;;;9.80;86.10;;;;;;5067129;28;20040;-82
2023/04/08 12:12:51;;;;;;;15.43;11.13;;;9.80;86.00;;;;;;5083945;28;20051;-83
2023/04/08 12:15:16;;;;;;;15.98;11.52;;;9.90;86.10;;;;;;5083393;28;20502;-83
2023/04/08 12:17:42;;;;;;;18.05;12.00;;;9.90;85.90;;;;;;5083663;28;20112;-83
2023/04/08 12:20:09;;;;;;;14.98;11.02;;;10.00;86.10;;;;;;5099572;28;20071;-84
2023/04/08 12:22:35;;;;;;;17.38;11.95;;;10.00;86.00;;;;;;5082430;28;20369;-83
2023/04/08 12:25:02;;;;;;;16.35;11.10;;;10.00;86.00;;;;;;5115583;28;20046;-83
2023/04/08 12:27:29;;;;;;;18.13;12.90;;;10.00;86.00;;;;;;5098721;28;20040;-84
2023/04/08 12:29:55;;;;;;;19.00;13.38;;;10.00;86.10;;;;;;5116290;28;20040;-84
2023/04/08 12:32:21;;;;;;;16.60;12.10;;;9.90;86.20;;;;;;5099435;28;20096;-83
2023/04/08 12:34:47;;;;;;;19.20;13.52;;;9.90;86.30;;;;;;5116323;28;20069;-83
2023/04/08 12:37:13;;;;;;;21.35;12.98;;;9.90;86.30;;;;;;5115680;28;20035;-84
2023/04/08 12:39:38;;;;;;;22.20;14.15;;;10.00;86.20;;;;;;5066146;28;20032;-84
2023/04/08 12:42:04;;;;;;;21.90;14.98;;;9.90;86.20;;;;;;5098836;28;20391;-84